sensor_id;sensor_type;location;lat;lon;timestamp;P1;durP1;ratioP1;P2;durP2;ratioP2
22916;SDS011;11624;53.250;7.456;2022-08-19T00:01:56;13.02;;;5.00;;
22916;SDS011;11624;53.250;7.456;2022-08-19T00:04:26;12.00;;;4.32;;
22916;SDS011;11624;53.250;7.456;2022-08-19T00:06:56;9.80;;;4.18;;
22916;SDS011;11624;53.250;7.456;2022-08-19T00:09:27;10.82;;;4.35;;
22916;SDS011;11624;53.250;7.456;2022-08-19T00:11:56;10.95;;;4.38;;
22916;SDS011;11624;53.250;7.456;2022-08-19T00:14:25;9.75;;;4.00;;
22916;SDS011;11624;53.250;7.456;2022-08-19T00:16:58;9.10;;;3.97;;
22916;SDS011;11624;53.250;7.456;2022-08-19T00:19:27;11.23;;;4.40;;
22916;SDS011;11624;53.250;7.456;2022-08-19T00:21:55;10.80;;;4.55;;
22916;SDS011;11624;53.250;7.456;2022-08-19T00:24:24;13.80;;;4.68;;
22916;SDS011;11624;53.250;7.456;2022-08-19T00:26:55;12.27;;;4.82;;
22916;SDS011;11624;53.250;7.456;2022-08-19T00:29:44;14.52;;;4.78;;
22916;SDS011;11624;53.250;7.456;2022-08-19T00:32:18;12.70;;;5.07;;
22916;SDS011;11624;53.250;7.456;2022-08-19T00:34:46;13.73;;;4.70;;
22916;SDS011;11624;53.250;7.456;2022-08-19T00:37:15;9.80;;;4.07;;
22916;SDS011;11624;53.250;7.456;2022-08-19T00:39:44;10.90;;;4.90;;
22916;SDS011;11624;53.250;7.456;2022-08-19T00:42:14;10.52;;;4.97;;
22916;SDS011;11624;53.250;7.456;2022-08-19T00:44:43;12.02;;;4.60;;
22916;SDS011;11624;53.250;7.456;2022-08-19T00:47:11;12.18;;;4.78;;
22916;SDS011;11624;53.250;7.456;2022-08-19T00:49:43;11.02;;;4.53;;
22916;SDS011;11624;53.250;7.456;2022-08-19T00:52:18;13.40;;;4.80;;
22916;SDS011;11624;53.250;7.456;2022-08-19T00:54:51;11.18;;;4.35;;
22916;SDS011;11624;53.250;7.456;2022-08-19T00:57:22;9.45;;;4.05;;
22916;SDS011;11624;53.250;7.456;2022-08-19T00:59:54;10.95;;;4.20;;
22916;SDS011;11624;53.250;7.456;2022-08-19T01:02:28;11.05;;;4.72;;
22916;SDS011;11624;53.250;7.456;2022-08-19T01:04:59;12.40;;;4.75;;
22916;SDS011;11624;53.250;7.456;2022-08-19T01:07:29;11.30;;;4.90;;
22916;SDS011;11624;53.250;7.456;2022-08-19T01:10:06;9.88;;;4.68;;
22916;SDS011;11624;53.250;7.456;2022-08-19T01:12:37;11.63;;;5.05;;
22916;SDS011;11624;53.250;7.456;2022-08-19T01:15:07;11.55;;;4.57;;
22916;SDS011;11624;53.250;7.456;2022-08-19T01:17:38;11.25;;;4.88;;
22916;SDS011;11624;53.250;7.456;2022-08-19T01:20:10;14.43;;;5.53;;
22916;SDS011;11624;53.250;7.456;2022-08-19T01:22:42;15.70;;;5.13;;
22916;SDS011;11624;53.250;7.456;2022-08-19T01:25:13;10.70;;;4.43;;
22916;SDS011;11624;53.250;7.456;2022-08-19T01:27:43;13.80;;;5.05;;
22916;SDS011;11624;53.250;7.456;2022-08-19T01:30:15;12.50;;;4.70;;
22916;SDS011;11624;53.250;7.456;2022-08-19T01:32:50;12.52;;;4.88;;
22916;SDS011;11624;53.250;7.456;2022-08-19T01:35:20;11.23;;;4.75;;
22916;SDS011;11624;53.250;7.456;2022-08-19T01:37:52;11.93;;;4.68;;
22916;SDS011;11624;53.250;7.456;2022-08-19T01:40:23;11.98;;;4.70;;
22916;SDS011;11624;53.250;7.456;2022-08-19T01:42:53;15.18;;;4.78;;
22916;SDS011;11624;53.250;7.456;2022-08-19T01:45:23;11.23;;;4.57;;
22916;SDS011;11624;53.250;7.456;2022-08-19T01:47:53;12.60;;;5.10;;
22916;SDS011;11624;53.250;7.456;2022-08-19T01:50:28;12.63;;;5.00;;
22916;SDS011;11624;53.250;7.456;2022-08-19T01:52:58;12.18;;;4.65;;
22916;SDS011;11624;53.250;7.456;2022-08-19T01:55:32;10.80;;;4.25;;
22916;SDS011;11624;53.250;7.456;2022-08-19T01:58:07;12.88;;;4.38;;
22916;SDS011;11624;53.250;7.456;2022-08-19T02:00:38;12.68;;;4.90;;
22916;SDS011;11624;53.250;7.456;2022-08-19T02:03:07;13.63;;;4.95;;
22916;SDS011;11624;53.250;7.456;2022-08-19T02:05:38;11.40;;;4.93;;
22916;SDS011;11624;53.250;7.456;2022-08-19T02:08:08;25.25;;;7.38;;
22916;SDS011;11624;53.250;7.456;2022-08-19T02:10:38;12.93;;;5.18;;
22916;SDS011;11624;53.250;7.456;2022-08-19T02:13:08;14.88;;;5.53;;
22916;SDS011;11624;53.250;7.456;2022-08-19T02:15:37;15.13;;;6.00;;
22916;SDS011;11624;53.250;7.456;2022-08-19T02:18:05;19.70;;;6.03;;
22916;SDS011;11624;53.250;7.456;2022-08-19T02:20:35;13.70;;;5.95;;
22916;SDS011;11624;53.250;7.456;2022-08-19T02:23:04;12.70;;;5.55;;
22916;SDS011;11624;53.250;7.456;2022-08-19T02:25:40;15.15;;;5.45;;
22916;SDS011;11624;53.250;7.456;2022-08-19T02:28:11;14.75;;;5.55;;
22916;SDS011;11624;53.250;7.456;2022-08-19T02:30:44;13.60;;;5.35;;
22916;SDS011;11624;53.250;7.456;2022-08-19T02:33:14;12.27;;;4.93;;
22916;SDS011;11624;53.250;7.456;2022-08-19T02:35:44;12.45;;;4.72;;
22916;SDS011;11624;53.250;7.456;2022-08-19T02:38:13;14.65;;;4.82;;
22916;SDS011;11624;53.250;7.456;2022-08-19T02:40:55;13.07;;;4.75;;
22916;SDS011;11624;53.250;7.456;2022-08-19T02:43:26;13.88;;;4.80;;
22916;SDS011;11624;53.250;7.456;2022-08-19T02:45:59;55.80;;;7.03;;
22916;SDS011;11624;53.250;7.456;2022-08-19T02:48:28;15.23;;;5.35;;
22916;SDS011;11624;53.250;7.456;2022-08-19T02:50:59;18.00;;;6.22;;
22916;SDS011;11624;53.250;7.456;2022-08-19T02:53:28;28.83;;;5.18;;
22916;SDS011;11624;53.250;7.456;2022-08-19T02:55:58;15.43;;;4.13;;
22916;SDS011;11624;53.250;7.456;2022-08-19T02:58:26;15.43;;;4.35;;
22916;SDS011;11624;53.250;7.456;2022-08-19T03:00:56;15.23;;;4.05;;
22916;SDS011;11624;53.250;7.456;2022-08-19T03:03:25;85.43;;;7.32;;
22916;SDS011;11624;53.250;7.456;2022-08-19T03:06:02;76.15;;;6.20;;
22916;SDS011;11624;53.250;7.456;2022-08-19T03:08:36;14.90;;;3.70;;
22916;SDS011;11624;53.250;7.456;2022-08-19T03:11:06;17.95;;;4.10;;
22916;SDS011;11624;53.250;7.456;2022-08-19T03:13:39;9.20;;;3.15;;
22916;SDS011;11624;53.250;7.456;2022-08-19T03:16:10;13.48;;;3.58;;
22916;SDS011;11624;53.250;7.456;2022-08-19T03:18:39;12.55;;;3.50;;
22916;SDS011;11624;53.250;7.456;2022-08-19T03:21:07;9.05;;;3.22;;
22916;SDS011;11624;53.250;7.456;2022-08-19T03:23:38;11.10;;;3.40;;
22916;SDS011;11624;53.250;7.456;2022-08-19T03:26:08;12.05;;;3.88;;
22916;SDS011;11624;53.250;7.456;2022-08-19T03:28:42;11.25;;;3.65;;
22916;SDS011;11624;53.250;7.456;2022-08-19T03:31:24;39.15;;;4.85;;
22916;SDS011;11624;53.250;7.456;2022-08-19T03:34:11;16.13;;;4.00;;
22916;SDS011;11624;53.250;7.456;2022-08-19T03:36:41;47.17;;;5.05;;
22916;SDS011;11624;53.250;7.456;2022-08-19T03:39:10;15.63;;;4.00;;
22916;SDS011;11624;53.250;7.456;2022-08-19T03:41:41;23.25;;;4.07;;
22916;SDS011;11624;53.250;7.456;2022-08-19T03:44:14;26.00;;;4.05;;
22916;SDS011;11624;53.250;7.456;2022-08-19T03:46:45;15.48;;;4.00;;
22916;SDS011;11624;53.250;7.456;2022-08-19T03:49:14;30.60;;;4.25;;
22916;SDS011;11624;53.250;7.456;2022-08-19T03:51:44;33.42;;;4.50;;
22916;SDS011;11624;53.250;7.456;2022-08-19T03:54:14;22.48;;;4.03;;
22916;SDS011;11624;53.250;7.456;2022-08-19T03:56:47;21.00;;;3.83;;
22916;SDS011;11624;53.250;7.456;2022-08-19T03:59:16;15.25;;;4.25;;
22916;SDS011;11624;53.250;7.456;2022-08-19T04:01:46;37.65;;;5.43;;
22916;SDS011;11624;53.250;7.456;2022-08-19T04:04:14;34.67;;;5.65;;
22916;SDS011;11624;53.250;7.456;2022-08-19T04:06:45;37.17;;;5.07;;
22916;SDS011;11624;53.250;7.456;2022-08-19T04:09:13;20.35;;;5.18;;
22916;SDS011;11624;53.250;7.456;2022-08-19T04:11:43;55.63;;;6.10;;
22916;SDS011;11624;53.250;7.456;2022-08-19T04:14:15;77.63;;;6.72;;
22916;SDS011;11624;53.250;7.456;2022-08-19T04:16:44;67.35;;;5.78;;
22916;SDS011;11624;53.250;7.456;2022-08-19T04:19:14;59.15;;;6.38;;
22916;SDS011;11624;53.250;7.456;2022-08-19T04:21:44;98.40;;;6.80;;
22916;SDS011;11624;53.250;7.456;2022-08-19T04:24:14;82.72;;;6.55;;
22916;SDS011;11624;53.250;7.456;2022-08-19T04:26:42;59.30;;;6.22;;
22916;SDS011;11624;53.250;7.456;2022-08-19T04:29:11;33.42;;;5.32;;
22916;SDS011;11624;53.250;7.456;2022-08-19T04:31:42;55.13;;;7.60;;
22916;SDS011;11624;53.250;7.456;2022-08-19T04:34:12;40.00;;;6.38;;
22916;SDS011;11624;53.250;7.456;2022-08-19T04:36:43;25.63;;;5.95;;
22916;SDS011;11624;53.250;7.456;2022-08-19T04:39:12;12.93;;;4.68;;
22916;SDS011;11624;53.250;7.456;2022-08-19T04:41:42;22.40;;;5.07;;
22916;SDS011;11624;53.250;7.456;2022-08-19T04:44:29;12.20;;;4.32;;
22916;SDS011;11624;53.250;7.456;2022-08-19T04:47:02;14.48;;;4.28;;
22916;SDS011;11624;53.250;7.456;2022-08-19T04:49:36;12.02;;;4.43;;
22916;SDS011;11624;53.250;7.456;2022-08-19T04:52:05;18.88;;;5.57;;
22916;SDS011;11624;53.250;7.456;2022-08-19T04:54:33;33.17;;;6.40;;
22916;SDS011;11624;53.250;7.456;2022-08-19T04:57:05;54.33;;;8.70;;
22916;SDS011;11624;53.250;7.456;2022-08-19T04:59:35;63.85;;;8.27;;
22916;SDS011;11624;53.250;7.456;2022-08-19T05:02:06;108.43;;;8.82;;
22916;SDS011;11624;53.250;7.456;2022-08-19T05:04:35;51.78;;;7.55;;
22916;SDS011;11624;53.250;7.456;2022-08-19T05:07:05;186.70;;;11.18;;
22916;SDS011;11624;53.250;7.456;2022-08-19T05:09:34;41.70;;;6.65;;
22916;SDS011;11624;53.250;7.456;2022-08-19T05:12:23;74.57;;;8.63;;
22916;SDS011;11624;53.250;7.456;2022-08-19T05:14:55;64.15;;;7.47;;
22916;SDS011;11624;53.250;7.456;2022-08-19T05:17:25;79.57;;;8.23;;
22916;SDS011;11624;53.250;7.456;2022-08-19T05:20:00;68.45;;;7.80;;
22916;SDS011;11624;53.250;7.456;2022-08-19T05:22:46;56.78;;;9.20;;
22916;SDS011;11624;53.250;7.456;2022-08-19T05:25:17;51.72;;;8.45;;
22916;SDS011;11624;53.250;7.456;2022-08-19T05:27:47;89.97;;;9.52;;
22916;SDS011;11624;53.250;7.456;2022-08-19T05:30:16;52.08;;;9.18;;
22916;SDS011;11624;53.250;7.456;2022-08-19T05:33:06;29.98;;;7.18;;
22916;SDS011;11624;53.250;7.456;2022-08-19T05:35:35;16.77;;;6.65;;
22916;SDS011;11624;53.250;7.456;2022-08-19T05:38:04;18.27;;;6.88;;
22916;SDS011;11624;53.250;7.456;2022-08-19T05:40:33;25.73;;;8.00;;
22916;SDS011;11624;53.250;7.456;2022-08-19T05:43:02;17.48;;;7.35;;
22916;SDS011;11624;53.250;7.456;2022-08-19T05:45:31;17.92;;;6.93;;
22916;SDS011;11624;53.250;7.456;2022-08-19T05:47:59;26.80;;;8.80;;
22916;SDS011;11624;53.250;7.456;2022-08-19T05:50:32;26.60;;;8.88;;
22916;SDS011;11624;53.250;7.456;2022-08-19T05:53:00;21.02;;;8.15;;
22916;SDS011;11624;53.250;7.456;2022-08-19T05:55:28;26.60;;;8.90;;
22916;SDS011;11624;53.250;7.456;2022-08-19T05:57:56;28.77;;;10.32;;
22916;SDS011;11624;53.250;7.456;2022-08-19T06:00:24;28.63;;;10.80;;
22916;SDS011;11624;53.250;7.456;2022-08-19T06:02:53;24.98;;;10.50;;
22916;SDS011;11624;53.250;7.456;2022-08-19T06:05:39;26.13;;;10.52;;
22916;SDS011;11624;53.250;7.456;2022-08-19T06:08:17;25.73;;;10.57;;
22916;SDS011;11624;53.250;7.456;2022-08-19T06:11:11;25.00;;;10.18;;
22916;SDS011;11624;53.250;7.456;2022-08-19T06:13:40;26.15;;;10.75;;
22916;SDS011;11624;53.250;7.456;2022-08-19T06:16:08;22.73;;;10.20;;
22916;SDS011;11624;53.250;7.456;2022-08-19T06:18:37;27.73;;;11.38;;
22916;SDS011;11624;53.250;7.456;2022-08-19T06:21:06;25.38;;;10.60;;
22916;SDS011;11624;53.250;7.456;2022-08-19T06:23:34;23.25;;;10.40;;
22916;SDS011;11624;53.250;7.456;2022-08-19T06:26:02;26.17;;;11.48;;
22916;SDS011;11624;53.250;7.456;2022-08-19T06:28:30;22.88;;;10.80;;
22916;SDS011;11624;53.250;7.456;2022-08-19T06:31:00;22.00;;;10.18;;
22916;SDS011;11624;53.250;7.456;2022-08-19T06:33:33;19.70;;;9.43;;
22916;SDS011;11624;53.250;7.456;2022-08-19T06:36:01;17.48;;;9.02;;
22916;SDS011;11624;53.250;7.456;2022-08-19T06:38:32;19.67;;;9.93;;
22916;SDS011;11624;53.250;7.456;2022-08-19T06:41:01;17.55;;;9.07;;
22916;SDS011;11624;53.250;7.456;2022-08-19T06:43:33;19.08;;;8.32;;
22916;SDS011;11624;53.250;7.456;2022-08-19T06:46:11;20.02;;;8.98;;
22916;SDS011;11624;53.250;7.456;2022-08-19T06:48:40;17.35;;;8.32;;
22916;SDS011;11624;53.250;7.456;2022-08-19T06:51:11;18.25;;;8.35;;
22916;SDS011;11624;53.250;7.456;2022-08-19T06:53:46;16.15;;;8.20;;
22916;SDS011;11624;53.250;7.456;2022-08-19T06:56:18;16.83;;;8.85;;
22916;SDS011;11624;53.250;7.456;2022-08-19T06:58:47;17.38;;;8.35;;
22916;SDS011;11624;53.250;7.456;2022-08-19T07:01:19;17.17;;;8.35;;
22916;SDS011;11624;53.250;7.456;2022-08-19T07:03:47;16.13;;;8.68;;
22916;SDS011;11624;53.250;7.456;2022-08-19T07:06:17;17.17;;;8.10;;
22916;SDS011;11624;53.250;7.456;2022-08-19T07:09:08;15.85;;;8.50;;
22916;SDS011;11624;53.250;7.456;2022-08-19T07:11:37;16.70;;;8.23;;
22916;SDS011;11624;53.250;7.456;2022-08-19T07:14:05;18.88;;;8.25;;
22916;SDS011;11624;53.250;7.456;2022-08-19T07:16:44;17.33;;;8.32;;
22916;SDS011;11624;53.250;7.456;2022-08-19T07:19:14;19.55;;;7.85;;
22916;SDS011;11624;53.250;7.456;2022-08-19T07:21:45;14.20;;;6.95;;
22916;SDS011;11624;53.250;7.456;2022-08-19T07:24:14;13.93;;;7.38;;
22916;SDS011;11624;53.250;7.456;2022-08-19T07:26:43;15.73;;;7.10;;
22916;SDS011;11624;53.250;7.456;2022-08-19T07:29:11;15.85;;;6.75;;
22916;SDS011;11624;53.250;7.456;2022-08-19T07:31:39;14.23;;;6.80;;
22916;SDS011;11624;53.250;7.456;2022-08-19T07:34:09;14.63;;;6.03;;
22916;SDS011;11624;53.250;7.456;2022-08-19T07:36:40;15.20;;;7.35;;
22916;SDS011;11624;53.250;7.456;2022-08-19T07:39:10;13.63;;;6.95;;
22916;SDS011;11624;53.250;7.456;2022-08-19T07:41:42;15.18;;;7.22;;
22916;SDS011;11624;53.250;7.456;2022-08-19T07:44:10;15.50;;;7.10;;
22916;SDS011;11624;53.250;7.456;2022-08-19T07:46:40;17.25;;;7.30;;
22916;SDS011;11624;53.250;7.456;2022-08-19T07:49:15;16.10;;;7.47;;
22916;SDS011;11624;53.250;7.456;2022-08-19T07:51:46;14.43;;;6.20;;
22916;SDS011;11624;53.250;7.456;2022-08-19T07:54:16;13.93;;;6.97;;
22916;SDS011;11624;53.250;7.456;2022-08-19T07:56:47;13.93;;;6.90;;
22916;SDS011;11624;53.250;7.456;2022-08-19T07:59:18;14.48;;;6.85;;
22916;SDS011;11624;53.250;7.456;2022-08-19T08:01:48;15.18;;;7.28;;
22916;SDS011;11624;53.250;7.456;2022-08-19T08:05:18;15.57;;;8.00;;
22916;SDS011;11624;53.250;7.456;2022-08-19T08:08:12;15.60;;;7.20;;
22916;SDS011;11624;53.250;7.456;2022-08-19T08:11:30;16.42;;;7.72;;
22916;SDS011;11624;53.250;7.456;2022-08-19T08:21:22;14.80;;;7.60;;
22916;SDS011;11624;53.250;7.456;2022-08-19T08:24:29;14.73;;;7.75;;
22916;SDS011;11624;53.250;7.456;2022-08-19T08:27:21;16.50;;;7.20;;
22916;SDS011;11624;53.250;7.456;2022-08-19T08:42:12;14.63;;;7.35;;
22916;SDS011;11624;53.250;7.456;2022-08-19T08:44:48;17.23;;;8.95;;
22916;SDS011;11624;53.250;7.456;2022-08-19T08:47:22;17.35;;;8.98;;
22916;SDS011;11624;53.250;7.456;2022-08-19T08:49:56;17.25;;;9.05;;
22916;SDS011;11624;53.250;7.456;2022-08-19T08:52:30;18.30;;;9.27;;
22916;SDS011;11624;53.250;7.456;2022-08-19T08:55:03;16.75;;;9.00;;
22916;SDS011;11624;53.250;7.456;2022-08-19T08:57:38;16.77;;;9.27;;
22916;SDS011;11624;53.250;7.456;2022-08-19T09:00:22;16.85;;;9.10;;
22916;SDS011;11624;53.250;7.456;2022-08-19T09:02:54;16.35;;;8.98;;
22916;SDS011;11624;53.250;7.456;2022-08-19T09:05:25;15.10;;;9.10;;
22916;SDS011;11624;53.250;7.456;2022-08-19T09:08:15;15.05;;;8.85;;
22916;SDS011;11624;53.250;7.456;2022-08-19T09:10:50;16.90;;;8.93;;
22916;SDS011;11624;53.250;7.456;2022-08-19T09:13:24;18.00;;;7.90;;
22916;SDS011;11624;53.250;7.456;2022-08-19T09:16:04;13.90;;;7.20;;
22916;SDS011;11624;53.250;7.456;2022-08-19T09:18:42;19.33;;;8.85;;
22916;SDS011;11624;53.250;7.456;2022-08-19T09:21:14;15.52;;;7.38;;
22916;SDS011;11624;53.250;7.456;2022-08-19T09:23:43;15.77;;;6.88;;
22916;SDS011;11624;53.250;7.456;2022-08-19T09:26:17;15.60;;;8.45;;
22916;SDS011;11624;53.250;7.456;2022-08-19T09:28:51;16.58;;;7.20;;
22916;SDS011;11624;53.250;7.456;2022-08-19T09:31:26;14.20;;;7.40;;
22916;SDS011;11624;53.250;7.456;2022-08-19T09:33:55;12.65;;;6.25;;
22916;SDS011;11624;53.250;7.456;2022-08-19T09:36:25;14.52;;;7.28;;
22916;SDS011;11624;53.250;7.456;2022-08-19T09:39:00;15.30;;;7.07;;
22916;SDS011;11624;53.250;7.456;2022-08-19T09:41:41;15.65;;;6.63;;
22916;SDS011;11624;53.250;7.456;2022-08-19T09:44:15;17.55;;;8.40;;
22916;SDS011;11624;53.250;7.456;2022-08-19T09:46:47;15.80;;;7.78;;
22916;SDS011;11624;53.250;7.456;2022-08-19T09:49:18;14.60;;;7.78;;
22916;SDS011;11624;53.250;7.456;2022-08-19T09:51:50;14.35;;;6.68;;
22916;SDS011;11624;53.250;7.456;2022-08-19T09:54:23;12.50;;;5.60;;
22916;SDS011;11624;53.250;7.456;2022-08-19T09:56:52;10.25;;;4.75;;
22916;SDS011;11624;53.250;7.456;2022-08-19T09:59:22;11.93;;;4.90;;
22916;SDS011;11624;53.250;7.456;2022-08-19T10:01:51;11.77;;;4.63;;
22916;SDS011;11624;53.250;7.456;2022-08-19T10:04:29;13.32;;;6.13;;
22916;SDS011;11624;53.250;7.456;2022-08-19T10:07:11;12.38;;;5.47;;
22916;SDS011;11624;53.250;7.456;2022-08-19T10:09:40;12.05;;;5.47;;
22916;SDS011;11624;53.250;7.456;2022-08-19T10:12:09;14.18;;;5.15;;
22916;SDS011;11624;53.250;7.456;2022-08-19T10:14:44;13.32;;;5.60;;
22916;SDS011;11624;53.250;7.456;2022-08-19T10:17:13;13.63;;;5.38;;
22916;SDS011;11624;53.250;7.456;2022-08-19T10:19:46;11.50;;;5.45;;
22916;SDS011;11624;53.250;7.456;2022-08-19T10:22:21;10.10;;;4.47;;
22916;SDS011;11624;53.250;7.456;2022-08-19T10:24:51;11.63;;;5.28;;
22916;SDS011;11624;53.250;7.456;2022-08-19T10:27:20;10.60;;;4.40;;
22916;SDS011;11624;53.250;7.456;2022-08-19T10:29:53;11.20;;;4.55;;
22916;SDS011;11624;53.250;7.456;2022-08-19T10:32:24;10.95;;;4.45;;
22916;SDS011;11624;53.250;7.456;2022-08-19T10:35:00;6.90;;;3.22;;
22916;SDS011;11624;53.250;7.456;2022-08-19T10:37:32;8.57;;;3.95;;
22916;SDS011;11624;53.250;7.456;2022-08-19T10:40:03;9.00;;;4.07;;
22916;SDS011;11624;53.250;7.456;2022-08-19T10:42:35;9.68;;;4.25;;
22916;SDS011;11624;53.250;7.456;2022-08-19T10:45:06;7.65;;;3.42;;
22916;SDS011;11624;53.250;7.456;2022-08-19T10:47:37;10.35;;;4.20;;
22916;SDS011;11624;53.250;7.456;2022-08-19T10:50:07;10.43;;;4.60;;
22916;SDS011;11624;53.250;7.456;2022-08-19T10:52:56;8.30;;;3.80;;
22916;SDS011;11624;53.250;7.456;2022-08-19T10:55:24;11.38;;;4.60;;
22916;SDS011;11624;53.250;7.456;2022-08-19T10:58:11;9.45;;;4.03;;
22916;SDS011;11624;53.250;7.456;2022-08-19T11:00:42;10.05;;;4.10;;
22916;SDS011;11624;53.250;7.456;2022-08-19T11:03:11;9.38;;;3.70;;
22916;SDS011;11624;53.250;7.456;2022-08-19T11:05:40;8.30;;;3.72;;
22916;SDS011;11624;53.250;7.456;2022-08-19T11:08:08;8.60;;;3.47;;
22916;SDS011;11624;53.250;7.456;2022-08-19T11:10:49;8.98;;;3.45;;
22916;SDS011;11624;53.250;7.456;2022-08-19T11:13:20;9.30;;;3.50;;
22916;SDS011;11624;53.250;7.456;2022-08-19T11:15:57;7.25;;;3.33;;
22916;SDS011;11624;53.250;7.456;2022-08-19T11:18:32;8.45;;;4.05;;
22916;SDS011;11624;53.250;7.456;2022-08-19T11:21:06;10.02;;;3.92;;
22916;SDS011;11624;53.250;7.456;2022-08-19T11:23:36;10.80;;;4.25;;
22916;SDS011;11624;53.250;7.456;2022-08-19T11:26:05;7.97;;;3.45;;
22916;SDS011;11624;53.250;7.456;2022-08-19T11:28:34;9.45;;;3.53;;
22916;SDS011;11624;53.250;7.456;2022-08-19T11:31:03;9.50;;;3.75;;
22916;SDS011;11624;53.250;7.456;2022-08-19T11:33:32;11.32;;;3.92;;
22916;SDS011;11624;53.250;7.456;2022-08-19T11:36:00;9.35;;;3.50;;
22916;SDS011;11624;53.250;7.456;2022-08-19T11:38:29;13.48;;;4.63;;
22916;SDS011;11624;53.250;7.456;2022-08-19T11:40:58;9.07;;;4.25;;
22916;SDS011;11624;53.250;7.456;2022-08-19T11:43:29;9.07;;;4.13;;
22916;SDS011;11624;53.250;7.456;2022-08-19T11:46:05;8.25;;;4.00;;
22916;SDS011;11624;53.250;7.456;2022-08-19T11:48:34;8.40;;;3.70;;
22916;SDS011;11624;53.250;7.456;2022-08-19T11:51:03;11.63;;;3.67;;
22916;SDS011;11624;53.250;7.456;2022-08-19T11:53:34;7.28;;;3.40;;
22916;SDS011;11624;53.250;7.456;2022-08-19T11:56:03;7.60;;;3.28;;
22916;SDS011;11624;53.250;7.456;2022-08-19T11:58:32;10.05;;;3.83;;
22916;SDS011;11624;53.250;7.456;2022-08-19T12:01:05;8.27;;;3.78;;
22916;SDS011;11624;53.250;7.456;2022-08-19T12:03:35;9.00;;;4.05;;
22916;SDS011;11624;53.250;7.456;2022-08-19T12:06:04;10.50;;;4.28;;
22916;SDS011;11624;53.250;7.456;2022-08-19T12:08:33;9.07;;;4.07;;
22916;SDS011;11624;53.250;7.456;2022-08-19T12:11:01;9.93;;;3.83;;
22916;SDS011;11624;53.250;7.456;2022-08-19T12:13:30;9.65;;;4.00;;
22916;SDS011;11624;53.250;7.456;2022-08-19T12:15:59;10.73;;;3.88;;
22916;SDS011;11624;53.250;7.456;2022-08-19T12:18:29;9.48;;;4.40;;
22916;SDS011;11624;53.250;7.456;2022-08-19T12:20:57;10.70;;;3.65;;
22916;SDS011;11624;53.250;7.456;2022-08-19T12:23:26;9.10;;;3.88;;
22916;SDS011;11624;53.250;7.456;2022-08-19T12:25:55;7.72;;;3.65;;
22916;SDS011;11624;53.250;7.456;2022-08-19T12:28:24;9.82;;;3.90;;
22916;SDS011;11624;53.250;7.456;2022-08-19T12:30:52;9.52;;;4.13;;
22916;SDS011;11624;53.250;7.456;2022-08-19T12:33:21;8.90;;;3.75;;
22916;SDS011;11624;53.250;7.456;2022-08-19T12:35:59;8.63;;;3.47;;
22916;SDS011;11624;53.250;7.456;2022-08-19T12:38:28;10.90;;;4.53;;
22916;SDS011;11624;53.250;7.456;2022-08-19T12:40:58;12.75;;;5.45;;
22916;SDS011;11624;53.250;7.456;2022-08-19T12:43:27;9.85;;;4.50;;
22916;SDS011;11624;53.250;7.456;2022-08-19T12:45:55;11.90;;;5.30;;
22916;SDS011;11624;53.250;7.456;2022-08-19T12:48:24;10.90;;;5.00;;
22916;SDS011;11624;53.250;7.456;2022-08-19T12:51:05;12.10;;;5.75;;
22916;SDS011;11624;53.250;7.456;2022-08-19T12:53:34;12.65;;;4.97;;
22916;SDS011;11624;53.250;7.456;2022-08-19T12:56:05;9.77;;;5.07;;
22916;SDS011;11624;53.250;7.456;2022-08-19T12:58:37;9.40;;;5.07;;
22916;SDS011;11624;53.250;7.456;2022-08-19T13:01:16;10.57;;;4.80;;
22916;SDS011;11624;53.250;7.456;2022-08-19T13:03:48;9.73;;;4.75;;
22916;SDS011;11624;53.250;7.456;2022-08-19T13:06:20;9.60;;;4.28;;
22916;SDS011;11624;53.250;7.456;2022-08-19T13:08:49;9.50;;;4.32;;
22916;SDS011;11624;53.250;7.456;2022-08-19T13:11:24;11.55;;;5.10;;
22916;SDS011;11624;53.250;7.456;2022-08-19T13:13:52;12.05;;;4.90;;
22916;SDS011;11624;53.250;7.456;2022-08-19T13:16:22;8.57;;;4.40;;
22916;SDS011;11624;53.250;7.456;2022-08-19T13:18:51;10.50;;;4.60;;
22916;SDS011;11624;53.250;7.456;2022-08-19T13:21:21;9.18;;;4.25;;
22916;SDS011;11624;53.250;7.456;2022-08-19T13:23:51;13.55;;;5.53;;
22916;SDS011;11624;53.250;7.456;2022-08-19T13:26:20;11.35;;;5.10;;
22916;SDS011;11624;53.250;7.456;2022-08-19T13:28:48;13.88;;;5.30;;
22916;SDS011;11624;53.250;7.456;2022-08-19T13:31:38;10.77;;;5.32;;
22916;SDS011;11624;53.250;7.456;2022-08-19T13:34:27;13.00;;;6.25;;
22916;SDS011;11624;53.250;7.456;2022-08-19T13:37:00;11.82;;;5.35;;
22916;SDS011;11624;53.250;7.456;2022-08-19T13:39:30;10.95;;;5.15;;
22916;SDS011;11624;53.250;7.456;2022-08-19T13:42:00;10.77;;;4.78;;
22916;SDS011;11624;53.250;7.456;2022-08-19T13:44:28;11.82;;;5.43;;
22916;SDS011;11624;53.250;7.456;2022-08-19T13:46:59;8.45;;;4.30;;
22916;SDS011;11624;53.250;7.456;2022-08-19T13:49:33;9.70;;;4.13;;
22916;SDS011;11624;53.250;7.456;2022-08-19T13:52:05;11.43;;;4.30;;
22916;SDS011;11624;53.250;7.456;2022-08-19T13:54:33;10.65;;;4.78;;
22916;SDS011;11624;53.250;7.456;2022-08-19T13:57:01;10.02;;;4.70;;
22916;SDS011;11624;53.250;7.456;2022-08-19T13:59:30;8.68;;;4.13;;
22916;SDS011;11624;53.250;7.456;2022-08-19T14:01:59;12.45;;;4.57;;
22916;SDS011;11624;53.250;7.456;2022-08-19T14:04:28;10.38;;;4.72;;
22916;SDS011;11624;53.250;7.456;2022-08-19T14:06:56;9.05;;;4.10;;
22916;SDS011;11624;53.250;7.456;2022-08-19T14:09:26;8.00;;;3.80;;
22916;SDS011;11624;53.250;7.456;2022-08-19T14:11:54;9.43;;;3.42;;
22916;SDS011;11624;53.250;7.456;2022-08-19T14:14:23;10.80;;;4.20;;
22916;SDS011;11624;53.250;7.456;2022-08-19T14:16:51;10.23;;;4.55;;
22916;SDS011;11624;53.250;7.456;2022-08-19T14:19:19;11.77;;;4.60;;
22916;SDS011;11624;53.250;7.456;2022-08-19T14:21:49;9.82;;;4.43;;
22916;SDS011;11624;53.250;7.456;2022-08-19T14:24:17;10.15;;;4.72;;
22916;SDS011;11624;53.250;7.456;2022-08-19T14:26:47;10.70;;;4.60;;
22916;SDS011;11624;53.250;7.456;2022-08-19T14:29:15;14.45;;;5.20;;
22916;SDS011;11624;53.250;7.456;2022-08-19T14:31:43;11.77;;;5.15;;
22916;SDS011;11624;53.250;7.456;2022-08-19T14:34:12;8.32;;;4.15;;
22916;SDS011;11624;53.250;7.456;2022-08-19T14:36:40;8.60;;;4.10;;
22916;SDS011;11624;53.250;7.456;2022-08-19T14:39:09;10.93;;;4.72;;
22916;SDS011;11624;53.250;7.456;2022-08-19T14:41:39;10.95;;;5.10;;
22916;SDS011;11624;53.250;7.456;2022-08-19T14:44:09;9.27;;;4.80;;
22916;SDS011;11624;53.250;7.456;2022-08-19T14:46:39;12.25;;;4.43;;
22916;SDS011;11624;53.250;7.456;2022-08-19T14:49:15;11.73;;;5.20;;
22916;SDS011;11624;53.250;7.456;2022-08-19T14:51:44;13.73;;;5.50;;
22916;SDS011;11624;53.250;7.456;2022-08-19T14:54:14;11.65;;;5.22;;
22916;SDS011;11624;53.250;7.456;2022-08-19T14:56:42;11.38;;;5.25;;
22916;SDS011;11624;53.250;7.456;2022-08-19T14:59:12;10.68;;;4.28;;
22916;SDS011;11624;53.250;7.456;2022-08-19T15:01:40;11.68;;;5.00;;
22916;SDS011;11624;53.250;7.456;2022-08-19T15:04:09;13.18;;;5.38;;
22916;SDS011;11624;53.250;7.456;2022-08-19T15:06:37;10.90;;;5.07;;
22916;SDS011;11624;53.250;7.456;2022-08-19T15:09:06;11.25;;;4.45;;
22916;SDS011;11624;53.250;7.456;2022-08-19T15:11:34;11.52;;;4.00;;
22916;SDS011;11624;53.250;7.456;2022-08-19T15:14:05;8.98;;;4.07;;
22916;SDS011;11624;53.250;7.456;2022-08-19T15:16:34;10.30;;;4.40;;
22916;SDS011;11624;53.250;7.456;2022-08-19T15:19:05;8.98;;;3.72;;
22916;SDS011;11624;53.250;7.456;2022-08-19T15:21:34;8.70;;;4.30;;
22916;SDS011;11624;53.250;7.456;2022-08-19T15:24:03;10.95;;;4.10;;